createdAt,value
2022-09-21T00:02:17.782Z,102012.06
2022-09-21T00:04:42.699Z,102002.09
2022-09-21T00:07:06.299Z,102005.47
2022-09-21T00:09:29.846Z,102013.09
2022-09-21T00:11:58.163Z,102009.47
2022-09-21T00:14:21.955Z,102015.69
2022-09-21T00:16:45.560Z,102012.50
2022-09-21T00:19:09.451Z,102014.19
2022-09-21T00:21:35.454Z,102013.84
2022-09-21T00:23:59.838Z,102014.00
2022-09-21T00:26:26.001Z,102017.63
2022-09-21T00:28:54.708Z,102012.28
2022-09-21T00:31:18.840Z,102014.16
2022-09-21T00:33:43.838Z,102016.09
2022-09-21T00:36:10.503Z,102014.66
2022-09-21T00:38:37.174Z,102012.06
2022-09-21T00:41:00.811Z,102011.28
2022-09-21T00:43:24.444Z,102014.06
2022-09-21T00:45:51.060Z,102014.78
2022-09-21T00:48:15.297Z,102014.16
2022-09-21T00:50:44.059Z,102019.94
2022-09-21T00:53:07.707Z,102020.22
2022-09-21T00:55:37.407Z,102018.34
2022-09-21T00:58:06.240Z,102030.69
2022-09-21T01:00:30.148Z,102020.56
2022-09-21T01:02:55.180Z,102015.22
2022-09-21T01:05:19.007Z,102019.50
2022-09-21T01:07:47.625Z,102017.34
2022-09-21T01:10:14.823Z,102024.53
2022-09-21T01:12:57.837Z,102023.03
2022-09-21T01:15:38.323Z,102023.81
2022-09-21T01:18:13.302Z,102027.50
2022-09-21T01:21:11.322Z,102023.38
2022-09-21T01:24:14.398Z,102028.44
2022-09-21T01:27:03.183Z,102027.84
2022-09-21T01:29:34.013Z,102034.69
2022-09-21T01:32:06.394Z,102035.88
2022-09-21T01:34:36.315Z,102031.94
2022-09-21T01:37:08.587Z,102032.50
2022-09-21T01:39:35.087Z,102029.00
2022-09-21T01:42:00.211Z,102031.66
2022-09-21T01:44:30.432Z,102030.72
2022-09-21T01:46:55.257Z,102028.81
2022-09-21T01:49:24.905Z,102031.59
2022-09-21T01:51:54.742Z,102029.00
2022-09-21T01:54:23.460Z,102031.50
2022-09-21T01:56:52.202Z,102026.31
2022-09-21T01:59:22.400Z,102030.84
2022-09-21T02:01:53.429Z,102033.53
2022-09-21T02:04:17.094Z,102028.06
2022-09-21T02:06:43.634Z,102033.53
2022-09-21T02:09:07.326Z,102039.97
2022-09-21T02:11:30.832Z,102036.59
2022-09-21T02:13:56.686Z,102035.22
2022-09-21T02:16:39.694Z,102032.34
2022-09-21T02:19:15.586Z,102029.81
2022-09-21T02:21:53.140Z,102034.22
2022-09-21T02:24:28.006Z,102039.63
2022-09-21T02:26:58.927Z,102031.81
2022-09-21T02:29:30.139Z,102039.69
2022-09-21T02:32:01.740Z,102047.13
2022-09-21T02:34:34.526Z,102049.88
2022-09-21T02:37:04.270Z,102050.84
2022-09-21T02:39:36.034Z,102052.06
2022-09-21T02:42:07.680Z,102049.06
2022-09-21T02:44:37.798Z,102050.81
2022-09-21T02:47:07.123Z,102046.50
2022-09-21T02:49:37.399Z,102049.38
2022-09-21T02:52:07.614Z,102051.19
2022-09-21T02:54:33.767Z,102050.13
2022-09-21T02:56:58.337Z,102059.31
2022-09-21T02:59:23.673Z,102063.19
2022-09-21T03:01:47.360Z,102061.94
2022-09-21T03:04:11.013Z,102059.09
2022-09-21T03:06:35.970Z,102060.69
2022-09-21T03:08:59.678Z,102066.69
2022-09-21T03:11:23.213Z,102070.63
2022-09-21T03:13:47.405Z,102069.63
2022-09-21T03:16:11.286Z,102068.88
2022-09-21T03:18:36.093Z,102070.69
2022-09-21T03:21:00.253Z,102073.22
2022-09-21T03:23:25.490Z,102077.97
2022-09-21T03:25:49.682Z,102072.03
2022-09-21T03:28:13.983Z,102068.16
2022-09-21T03:30:37.766Z,102079.75
2022-09-21T03:33:01.282Z,102076.16
2022-09-21T03:35:26.677Z,102067.13
2022-09-21T03:37:51.270Z,102079.84
2022-09-21T03:40:17.484Z,102073.75
2022-09-21T03:42:42.066Z,102080.69
2022-09-21T03:45:06.954Z,102083.50
2022-09-21T03:47:30.473Z,102079.03
2022-09-21T03:49:54.254Z,102088.16
2022-09-21T03:52:17.781Z,102091.63
2022-09-21T03:54:41.314Z,102077.34
2022-09-21T03:59:30.089Z,102089.03
2022-09-21T04:01:53.653Z,102083.69
2022-09-21T04:04:17.717Z,102080.47
2022-09-21T04:06:41.352Z,102079.41
2022-09-21T04:09:05.123Z,102084.81
2022-09-21T04:11:28.662Z,102085.00
2022-09-21T04:13:56.999Z,102081.88
2022-09-21T04:16:20.674Z,102083.97
2022-09-21T04:18:44.210Z,102092.75
2022-09-21T04:21:07.975Z,102092.16
2022-09-21T04:23:31.528Z,102089.63
2022-09-21T04:25:58.027Z,102088.06
2022-09-21T04:28:21.671Z,102090.69
2022-09-21T04:30:46.669Z,102096.84
2022-09-21T04:33:10.358Z,102094.91
2022-09-21T04:35:33.886Z,102084.53
2022-09-21T04:37:57.698Z,102095.03
2022-09-21T04:40:21.256Z,102088.94
2022-09-21T04:42:44.799Z,102085.63
2022-09-21T04:45:10.094Z,102089.69
2022-09-21T04:47:35.027Z,102088.94
2022-09-21T04:49:58.735Z,102084.72
2022-09-21T04:52:22.341Z,102089.13
2022-09-21T04:54:46.153Z,102098.50
2022-09-21T04:57:09.810Z,102093.00
2022-09-21T04:59:33.353Z,102090.00
2022-09-21T05:01:56.862Z,102101.06
2022-09-21T05:04:21.809Z,102101.84
2022-09-21T05:06:45.427Z,102107.81
2022-09-21T05:09:27.198Z,102108.88
2022-09-21T05:11:51.433Z,102106.97
2022-09-21T05:14:15.239Z,102110.56
2022-09-21T05:16:39.144Z,102116.63
2022-09-21T05:19:02.765Z,102121.22
2022-09-21T05:21:28.166Z,102124.69
2022-09-21T05:23:51.775Z,102124.44
2022-09-21T05:26:15.374Z,102119.66
2022-09-21T05:28:40.375Z,102133.59
2022-09-21T05:31:18.083Z,102129.00
2022-09-21T05:33:47.623Z,102127.75
2022-09-21T05:36:31.870Z,102130.03
2022-09-21T05:38:56.537Z,102142.91
2022-09-21T05:41:20.756Z,102131.50
2022-09-21T05:43:45.484Z,102137.72
2022-09-21T05:46:19.560Z,102135.91
2022-09-21T05:48:49.154Z,102134.66
2022-09-21T05:51:22.062Z,102131.72
2022-09-21T05:53:58.758Z,102144.16
2022-09-21T05:56:36.082Z,102136.50
2022-09-21T05:59:13.577Z,102132.78
2022-09-21T06:01:56.820Z,102133.59
2022-09-21T06:04:21.107Z,102141.88
2022-09-21T06:06:44.722Z,102133.81
2022-09-21T06:09:09.778Z,102137.72
2022-09-21T06:11:33.899Z,102137.47
2022-09-21T06:13:58.445Z,102148.66
2022-09-21T06:16:22.054Z,102145.50
2022-09-21T06:18:45.698Z,102156.66
2022-09-21T06:21:10.380Z,102150.00
2022-09-21T06:23:33.975Z,102147.59
2022-09-21T06:25:58.979Z,102155.91
2022-09-21T06:28:22.562Z,102152.25
2022-09-21T06:30:52.523Z,102143.69
2022-09-21T06:33:20.759Z,102158.06
2022-09-21T06:35:44.285Z,102156.50
2022-09-21T06:38:09.360Z,102153.56
2022-09-21T06:40:34.893Z,102152.97
2022-09-21T06:43:01.407Z,102156.31
2022-09-21T06:45:25.082Z,102164.59
2022-09-21T06:47:49.086Z,102159.59
2022-09-21T06:50:12.595Z,102166.31
2022-09-21T06:52:38.086Z,102166.22
2022-09-21T06:55:01.787Z,102160.84
2022-09-21T06:57:25.422Z,102160.50
2022-09-21T06:59:50.288Z,102165.03
2022-09-21T07:02:13.938Z,102172.81
2022-09-21T07:04:37.470Z,102178.19
2022-09-21T07:07:03.959Z,102177.69
2022-09-21T07:12:11.762Z,102178.84
2022-09-21T07:14:35.363Z,102175.63
2022-09-21T07:17:00.495Z,102180.84
2022-09-21T07:19:24.049Z,102185.59
2022-09-21T07:21:47.608Z,102180.09
2022-09-21T07:24:12.585Z,102182.25
2022-09-21T07:26:37.307Z,102183.38
2022-09-21T07:29:00.864Z,102183.28
2022-09-21T07:31:24.514Z,102183.00
2022-09-21T07:33:49.464Z,102178.63
2022-09-21T07:36:13.994Z,102175.25
2022-09-21T07:38:38.578Z,102187.19
2022-09-21T07:41:03.868Z,102181.41
2022-09-21T07:43:28.443Z,102180.47
2022-09-21T07:45:55.840Z,102183.31
2022-09-21T07:48:19.405Z,102180.06
2022-09-21T07:50:44.344Z,102180.69
2022-09-21T07:53:07.843Z,102188.66
2022-09-21T07:55:32.637Z,102180.91
2022-09-21T07:58:13.439Z,102192.72
2022-09-21T08:00:38.404Z,102186.28
2022-09-21T08:03:02.058Z,102183.31
2022-09-21T08:05:25.706Z,102184.69
2022-09-21T08:07:53.026Z,102194.19
2022-09-21T08:10:16.678Z,102193.44
2022-09-21T08:12:40.293Z,102188.59
2022-09-21T08:15:04.024Z,102190.59
2022-09-21T08:17:27.607Z,102192.22
2022-09-21T08:19:51.211Z,102185.75
2022-09-21T08:22:15.027Z,102194.97
2022-09-21T08:24:44.275Z,102190.84
2022-09-21T08:27:08.597Z,102195.59
2022-09-21T08:29:32.202Z,102187.28
2022-09-21T08:31:55.806Z,102190.50
2022-09-21T08:34:19.684Z,102194.50
2022-09-21T08:36:43.691Z,102194.63
2022-09-21T08:39:08.986Z,102189.19
2022-09-21T08:42:06.238Z,102190.28
2022-09-21T08:44:34.838Z,102198.81
2022-09-21T08:47:06.573Z,102195.47
2022-09-21T08:49:31.089Z,102199.13
2022-09-21T08:51:59.166Z,102204.53
2022-09-21T08:54:29.952Z,102197.00
2022-09-21T08:57:04.869Z,102190.09
2022-09-21T08:59:30.167Z,102199.63
2022-09-21T09:02:00.228Z,102196.16
2022-09-21T09:04:41.210Z,102195.38
2022-09-21T09:07:22.638Z,102195.28
2022-09-21T09:10:08.332Z,102194.03
2022-09-21T09:12:56.796Z,102191.69
2022-09-21T09:15:58.732Z,102190.34
2022-09-21T09:18:32.692Z,102192.22
2022-09-21T09:21:03.110Z,102193.34
2022-09-21T09:23:31.186Z,102191.97
2022-09-21T09:26:01.462Z,102196.56
2022-09-21T09:28:32.587Z,102193.63
2022-09-21T09:31:02.375Z,102197.13
2022-09-21T09:33:30.040Z,102197.78
2022-09-21T09:35:58.847Z,102197.88
2022-09-21T09:38:29.772Z,102201.34
2022-09-21T09:41:14.710Z,102197.50
2022-09-21T09:43:56.505Z,102199.47
2022-09-21T09:46:29.744Z,102202.34
2022-09-21T09:49:16.070Z,102193.22
2022-09-21T09:51:41.119Z,102197.22
2022-09-21T09:54:08.242Z,102192.50
2022-09-21T09:56:34.487Z,102197.34
2022-09-21T09:59:08.185Z,102193.72
2022-09-21T10:01:42.725Z,102190.56
2022-09-21T10:04:09.460Z,102190.00
2022-09-21T10:06:34.030Z,102191.34
2022-09-21T10:08:57.602Z,102185.72
2022-09-21T10:11:21.423Z,102183.19
2022-09-21T10:13:47.446Z,102182.59
2022-09-21T10:16:17.057Z,102188.28
2022-09-21T10:18:47.020Z,102180.75
2022-09-21T10:21:18.345Z,102185.59
2022-09-21T10:23:47.960Z,102185.00
2022-09-21T10:26:15.110Z,102173.06
2022-09-21T10:28:38.959Z,102180.19
2022-09-21T10:31:22.502Z,102177.75
2022-09-21T10:33:53.482Z,102175.41
2022-09-21T10:36:35.407Z,102177.59
2022-09-21T10:39:22.043Z,102171.09
2022-09-21T10:41:51.413Z,102170.00
2022-09-21T10:44:18.132Z,102171.34
2022-09-21T10:46:43.384Z,102165.44
2022-09-21T10:49:18.774Z,102167.94
2022-09-21T10:51:46.234Z,102166.38
2022-09-21T10:54:11.848Z,102157.00
2022-09-21T10:56:35.479Z,102165.88
2022-09-21T10:59:21.909Z,102157.19
2022-09-21T11:01:48.743Z,102163.56
2022-09-21T11:04:17.531Z,102155.34
2022-09-21T11:06:45.004Z,102158.69
2022-09-21T11:09:15.515Z,102159.22
2022-09-21T11:11:51.920Z,102160.31
2022-09-21T11:14:33.755Z,102161.31
2022-09-21T11:17:06.111Z,102159.97
2022-09-21T11:19:40.250Z,102152.66
2022-09-21T11:22:09.263Z,102157.03
2022-09-21T11:24:43.493Z,102152.19
2022-09-21T11:27:13.861Z,102162.09
2022-09-21T11:29:58.587Z,102161.81
2022-09-21T11:32:42.910Z,102169.34
2022-09-21T11:35:54.164Z,102156.00
2022-09-21T11:38:34.679Z,102155.72
2022-09-21T11:41:25.827Z,102159.47
2022-09-21T11:44:17.865Z,102156.63
2022-09-21T11:46:53.356Z,102156.81
2022-09-21T11:50:03.098Z,102153.03
2022-09-21T11:52:56.571Z,102147.50
2022-09-21T11:56:07.014Z,102145.66
2022-09-21T11:58:38.949Z,102138.38
2022-09-21T12:01:23.743Z,102144.94
2022-09-21T12:04:04.214Z,102150.81
2022-09-21T12:06:45.217Z,102146.44
2022-09-21T12:09:45.083Z,102145.25
2022-09-21T12:12:14.415Z,102152.22
2022-09-21T12:14:50.276Z,102147.59
2022-09-21T12:17:24.845Z,102139.53
2022-09-21T12:19:57.243Z,102150.13
2022-09-21T12:22:26.838Z,102142.09
2022-09-21T12:24:54.202Z,102127.59
2022-09-21T12:27:27.807Z,102129.91
2022-09-21T12:29:55.288Z,102131.22
2022-09-21T12:32:25.581Z,102134.97
2022-09-21T12:34:58.001Z,102122.25
2022-09-21T12:37:38.583Z,102129.25
2022-09-21T12:40:08.518Z,102127.50
2022-09-21T12:42:39.967Z,102121.84
2022-09-21T12:45:13.782Z,102117.94
2022-09-21T12:47:50.422Z,102118.41
2022-09-21T12:50:22.440Z,102128.13
2022-09-21T12:52:47.591Z,102121.50
2022-09-21T12:55:36.318Z,102125.78
2022-09-21T12:58:16.573Z,102122.53
2022-09-21T13:00:49.472Z,102117.25
2022-09-21T13:03:22.085Z,102114.56
2022-09-21T13:06:19.240Z,102122.75
2022-09-21T13:08:47.202Z,102113.88
2022-09-21T13:11:11.595Z,102112.28
2022-09-21T13:13:40.055Z,102109.16
2022-09-21T13:16:05.456Z,102106.44
2022-09-21T13:18:36.212Z,102109.25
2022-09-21T13:21:01.346Z,102109.69
2022-09-21T13:23:29.926Z,102115.56
2022-09-21T13:26:05.406Z,102110.13
2022-09-21T13:28:59.027Z,102106.69
2022-09-21T13:31:58.821Z,102104.22
2022-09-21T13:34:35.655Z,102100.63
2022-09-21T13:37:29.314Z,102096.63
2022-09-21T13:40:40.009Z,102099.63
2022-09-21T13:44:05.863Z,102095.91
2022-09-21T13:47:02.849Z,102087.25
2022-09-21T13:49:41.952Z,102088.59
2022-09-21T13:52:16.810Z,102085.34
2022-09-21T13:54:51.045Z,102085.28
2022-09-21T13:57:22.239Z,102089.31
2022-09-21T13:59:50.558Z,102087.63
2022-09-21T14:02:33.248Z,102089.47
2022-09-21T14:04:57.778Z,102085.38
2022-09-21T14:07:21.627Z,102087.22
2022-09-21T14:09:59.231Z,102086.50
2022-09-21T14:12:26.991Z,102079.19
2022-09-21T14:15:34.289Z,102070.72
2022-09-21T14:18:47.071Z,102082.03
2022-09-21T14:21:20.354Z,102083.44
2022-09-21T14:24:17.838Z,102082.75
2022-09-21T14:26:56.511Z,102071.22
2022-09-21T14:29:26.478Z,102063.97
2022-09-21T14:31:56.635Z,102065.03
2022-09-21T14:34:24.916Z,102063.84
2022-09-21T14:36:51.331Z,102063.22
2022-09-21T14:39:22.222Z,102068.00
2022-09-21T14:41:49.653Z,102064.16
2022-09-21T14:44:22.455Z,102069.19
2022-09-21T14:47:06.474Z,102059.41
2022-09-21T14:50:06.170Z,102058.59
2022-09-21T14:52:43.410Z,102053.00
2022-09-21T14:55:18.823Z,102060.03
2022-09-21T14:58:09.469Z,102057.97
2022-09-21T15:00:42.919Z,102059.38
2022-09-21T15:03:46.249Z,102054.81
2022-09-21T15:06:40.032Z,102048.56
2022-09-21T15:09:53.651Z,102055.72
2022-09-21T15:12:22.057Z,102051.13
2022-09-21T15:14:51.158Z,102055.16
2022-09-21T15:17:27.055Z,102051.03
2022-09-21T15:19:52.197Z,102038.03
2022-09-21T15:22:19.802Z,102051.63
2022-09-21T15:24:52.198Z,102044.47
2022-09-21T15:27:18.333Z,102039.56
2022-09-21T15:29:45.054Z,102034.72
2022-09-21T15:32:09.203Z,102039.53
2022-09-21T15:34:33.197Z,102032.97
2022-09-21T15:37:09.222Z,102040.72
2022-09-21T15:39:33.859Z,102035.97
2022-09-21T15:42:22.948Z,102035.09
2022-09-21T15:44:49.086Z,102046.69
2022-09-21T15:47:14.514Z,102044.22
2022-09-21T15:49:42.222Z,102042.63
2022-09-21T15:52:14.450Z,102046.72
2022-09-21T15:54:43.465Z,102046.31
2022-09-21T15:57:39.060Z,102051.75
2022-09-21T16:00:06.090Z,102046.34
2022-09-21T16:02:38.022Z,102053.75
2022-09-21T16:05:01.866Z,102051.72
2022-09-21T16:07:34.427Z,102049.94
2022-09-21T16:09:58.122Z,102052.66
2022-09-21T16:12:42.336Z,102048.25
2022-09-21T16:15:08.912Z,102056.09
2022-09-21T16:17:38.395Z,102054.16
2022-09-21T16:20:20.035Z,102052.84
2022-09-21T16:22:48.687Z,102059.41
2022-09-21T16:25:32.733Z,102054.41
2022-09-21T16:27:59.115Z,102051.97
2022-09-21T16:30:44.775Z,102064.06
2022-09-21T16:33:41.451Z,102064.72
2022-09-21T16:36:51.475Z,102065.88
2022-09-21T16:39:18.763Z,102068.38
2022-09-21T16:41:47.377Z,102064.72
2022-09-21T16:44:19.767Z,102071.88
2022-09-21T16:46:43.878Z,102073.25
2022-09-21T16:49:10.519Z,102072.28
2022-09-21T16:51:34.070Z,102078.66
2022-09-21T16:53:58.624Z,102075.63
2022-09-21T16:56:23.762Z,102073.66
2022-09-21T16:58:48.142Z,102069.94
2022-09-21T17:01:15.543Z,102073.50
2022-09-21T17:03:40.081Z,102076.34
2022-09-21T17:06:03.662Z,102080.00
2022-09-21T17:08:27.668Z,102080.38
2022-09-21T17:10:51.407Z,102078.41
2022-09-21T17:13:19.929Z,102076.16
2022-09-21T17:15:48.031Z,102078.59
2022-09-21T17:18:13.574Z,102079.19
2022-09-21T17:20:39.770Z,102086.28
2022-09-21T17:23:04.229Z,102089.06
2022-09-21T17:25:27.817Z,102087.88
2022-09-21T17:27:53.111Z,102093.25
2022-09-21T17:30:18.078Z,102095.13
2022-09-21T17:32:42.967Z,102096.22
2022-09-21T17:35:19.672Z,102091.88
2022-09-21T17:37:43.266Z,102092.84
2022-09-21T17:40:11.082Z,102093.84
2022-09-21T17:42:41.260Z,102093.44
2022-09-21T17:45:21.504Z,102094.63
2022-09-21T17:47:45.500Z,102089.16
2022-09-21T17:50:25.476Z,102090.78
2022-09-21T17:53:07.032Z,102096.63
2022-09-21T17:55:32.096Z,102092.31
2022-09-21T17:58:13.143Z,102098.16
2022-09-21T18:00:51.298Z,102092.28
2022-09-21T18:03:23.410Z,102101.66
2022-09-21T18:05:47.642Z,102100.28
2022-09-21T18:08:11.929Z,102100.03
2022-09-21T18:10:36.231Z,102095.81
2022-09-21T18:13:24.382Z,102098.28
2022-09-21T18:16:04.729Z,102098.25
2022-09-21T18:18:44.486Z,102100.31
2022-09-21T18:21:18.420Z,102110.72
2022-09-21T18:23:53.221Z,102111.47
2022-09-21T18:26:18.322Z,102108.28
2022-09-21T18:28:45.855Z,102113.13
2022-09-21T18:31:48.179Z,102113.63
2022-09-21T18:34:51.044Z,102113.28
2022-09-21T18:37:25.180Z,102112.03
2022-09-21T18:39:57.700Z,102118.69
2022-09-21T18:42:40.206Z,102115.44
2022-09-21T18:45:08.003Z,102117.97
2022-09-21T18:47:42.396Z,102107.41
2022-09-21T18:50:19.854Z,102123.84
2022-09-21T18:52:53.221Z,102121.34
2022-09-21T18:55:26.693Z,102124.53
2022-09-21T18:57:51.402Z,102117.78
2022-09-21T19:00:17.164Z,102120.75
2022-09-21T19:03:05.032Z,102120.94
2022-09-21T19:05:27.351Z,102128.91
2022-09-21T19:08:02.770Z,102134.09
2022-09-21T19:10:33.127Z,102135.25
2022-09-21T19:13:20.614Z,102132.75
2022-09-21T19:16:00.882Z,102140.34
2022-09-21T19:18:37.763Z,102137.03
2022-09-21T19:21:18.318Z,102131.00
2022-09-21T19:24:07.967Z,102142.06
2022-09-21T19:26:38.386Z,102136.06
2022-09-21T19:29:29.733Z,102141.81
2022-09-21T19:31:53.677Z,102141.31
2022-09-21T19:34:20.462Z,102144.09
2022-09-21T19:36:45.038Z,102144.31
2022-09-21T19:39:10.297Z,102143.81
2022-09-21T19:41:48.057Z,102136.09
2022-09-21T19:44:31.190Z,102146.06
2022-09-21T19:47:06.793Z,102138.38
2022-09-21T19:49:42.732Z,102143.16
2022-09-21T19:52:07.454Z,102135.28
2022-09-21T19:54:49.378Z,102136.69
2022-09-21T19:57:33.666Z,102144.81
2022-09-21T19:59:58.146Z,102146.44
2022-09-21T20:02:28.714Z,102129.44
2022-09-21T20:04:58.307Z,102140.94
2022-09-21T20:07:44.535Z,102143.03
2022-09-21T20:10:34.386Z,102143.03
2022-09-21T20:13:10.163Z,102145.09
2022-09-21T20:15:41.209Z,102144.59
2022-09-21T20:18:12.998Z,102162.44
2022-09-21T20:20:38.514Z,102160.97
2022-09-21T20:23:02.957Z,102156.63
2022-09-21T20:25:32.741Z,102155.94
2022-09-21T20:27:58.063Z,102152.50
2022-09-21T20:30:25.903Z,102153.78
2022-09-21T20:32:54.146Z,102154.03
2022-09-21T20:35:21.228Z,102145.19
2022-09-21T20:37:46.660Z,102150.91
2022-09-21T20:40:13.371Z,102149.28
2022-09-21T20:42:38.719Z,102146.59
2022-09-21T20:45:03.722Z,102141.97
2022-09-21T20:47:28.978Z,102146.41
2022-09-21T20:49:52.547Z,102150.38
2022-09-21T20:52:17.397Z,102152.22
2022-09-21T20:54:45.503Z,102149.16
2022-09-21T20:57:12.481Z,102144.31
2022-09-21T20:59:36.019Z,102147.50
2022-09-21T21:01:59.634Z,102145.25
2022-09-21T21:04:23.617Z,102147.09
2022-09-21T21:06:48.171Z,102153.25
2022-09-21T21:09:11.663Z,102151.31
2022-09-21T21:11:36.690Z,102155.84
2022-09-21T21:14:00.284Z,102150.47
2022-09-21T21:16:23.961Z,102149.88
2022-09-21T21:18:47.540Z,102154.59
2022-09-21T21:21:11.495Z,102152.47
2022-09-21T21:23:55.900Z,102157.53
2022-09-21T21:26:19.522Z,102161.00
2022-09-21T21:28:44.429Z,102161.00
2022-09-21T21:31:08.002Z,102161.09
2022-09-21T21:33:31.518Z,102170.06
2022-09-21T21:35:55.094Z,102163.19
2022-09-21T21:38:18.610Z,102165.88
2022-09-21T21:40:42.195Z,102160.69
2022-09-21T21:43:05.726Z,102154.34
2022-09-21T21:45:30.786Z,102151.63
2022-09-21T21:47:56.036Z,102149.47
2022-09-21T21:50:19.614Z,102159.41
2022-09-21T21:52:45.116Z,102150.41
2022-09-21T21:55:10.235Z,102148.53
2022-09-21T21:57:33.739Z,102152.94
2022-09-21T21:59:57.361Z,102146.63
2022-09-21T22:02:22.333Z,102156.53
2022-09-21T22:04:46.145Z,102152.84
2022-09-21T22:07:09.628Z,102142.81
2022-09-21T22:09:33.342Z,102148.03
2022-09-21T22:11:58.308Z,102147.78
2022-09-21T22:14:23.071Z,102145.91
2022-09-21T22:16:46.757Z,102150.38
2022-09-21T22:19:11.907Z,102143.22
2022-09-21T22:21:41.048Z,102149.78
2022-09-21T22:24:06.964Z,102148.22
2022-09-21T22:26:33.826Z,102148.13
2022-09-21T22:29:00.398Z,102150.72
2022-09-21T22:31:26.652Z,102155.00
2022-09-21T22:33:51.022Z,102148.75
2022-09-21T22:36:19.144Z,102149.44
2022-09-21T22:38:43.301Z,102145.72
2022-09-21T22:41:08.769Z,102148.41
2022-09-21T22:43:32.967Z,102153.94
2022-09-21T22:45:56.522Z,102153.59
2022-09-21T22:48:20.487Z,102158.63
2022-09-21T22:50:45.207Z,102157.91
2022-09-21T22:53:10.210Z,102162.59
2022-09-21T22:55:33.720Z,102156.03
2022-09-21T22:57:57.327Z,102158.44
2022-09-21T23:00:21.039Z,102152.81
2022-09-21T23:02:44.904Z,102153.84
2022-09-21T23:05:09.970Z,102157.47
2022-09-21T23:07:33.526Z,102160.06
2022-09-21T23:09:58.455Z,102157.97
2022-09-21T23:12:22.006Z,102152.22
2022-09-21T23:14:45.894Z,102153.56
2022-09-21T23:17:09.720Z,102146.50
2022-09-21T23:19:33.262Z,102149.31
2022-09-21T23:21:57.669Z,102146.94
2022-09-21T23:24:21.984Z,102150.47
2022-09-21T23:26:47.891Z,102143.81
2022-09-21T23:29:14.918Z,102142.94
2022-09-21T23:31:43.763Z,102141.28
2022-09-21T23:34:12.691Z,102140.44
2022-09-21T23:36:37.676Z,102142.50
2022-09-21T23:39:01.243Z,102148.13
2022-09-21T23:41:27.532Z,102146.53
2022-09-21T23:43:52.739Z,102151.88
2022-09-21T23:46:19.031Z,102146.63
2022-09-21T23:48:43.377Z,102145.72
2022-09-21T23:51:08.343Z,102149.31
2022-09-21T23:53:32.802Z,102139.94
2022-09-21T23:55:57.603Z,102142.63
2022-09-21T23:58:21.755Z,102139.75
